Time;durP1;ratioP1;P1;durP2;ratioP2;P2;SDS_P1;SDS_P2;PMS_P1;PMS_P2;Temp;Humidity;BMP_temperature;BMP_pressure;BME280_temperature;BME280_humidity;BME280_pressure;Samples;Min_cycle;Max_cycle;Signal;HPM_P1;HPM_P2
2022/06/25 00:01:53;;;;;;;16.23;5.28;;;18.80;99.90;;;;;;5020186;28;20085;-76
2022/06/25 00:07:05;;;;;;;16.33;5.68;;;18.80;99.90;;;;;;5018939;28;20049;-77
2022/06/25 00:09:32;;;;;;;24.38;6.85;;;18.80;99.90;;;;;;5018895;28;20077;-77
2022/06/25 00:14:46;;;;;;;31.23;8.23;;;18.80;99.90;;;;;;5018279;28;20207;-76
2022/06/25 00:17:13;;;;;;;26.80;7.38;;;18.80;99.90;;;;;;5018500;28;20057;-76
2022/06/25 00:19:41;;;;;;;27.65;6.55;;;18.70;99.90;;;;;;5016692;28;20073;-77
2022/06/25 00:22:08;;;;;;;33.88;7.65;;;18.70;99.90;;;;;;5017799;28;20037;-77
2022/06/25 00:24:35;;;;;;;23.25;6.95;;;18.60;99.90;;;;;;5018827;28;20145;-77
2022/06/25 00:27:04;;;;;;;23.40;6.63;;;18.60;99.90;;;;;;5017097;28;20041;-77
2022/06/25 00:29:34;;;;;;;23.23;6.70;;;18.60;99.90;;;;;;5010634;28;20530;-77
2022/06/25 00:32:01;;;;;;;28.45;6.70;;;18.60;99.90;;;;;;5009554;28;20045;-77
2022/06/25 00:34:29;;;;;;;21.45;7.15;;;18.60;99.90;;;;;;5010525;28;20061;-77
2022/06/25 00:36:56;;;;;;;20.75;6.03;;;18.60;99.90;;;;;;5009131;28;20529;-77
2022/06/25 00:39:23;;;;;;;28.15;6.57;;;18.60;99.90;;;;;;5010709;28;20061;-76
2022/06/25 00:41:51;;;;;;;17.95;6.78;;;18.50;99.90;;;;;;4994124;28;20049;-75
2022/06/25 00:44:19;;;;;;;23.23;6.30;;;18.40;99.90;;;;;;4996784;28;20041;-77
2022/06/25 00:46:47;;;;;;;18.98;6.55;;;18.40;99.90;;;;;;5014129;28;20061;-75
2022/06/25 00:49:15;;;;;;;13.90;5.80;;;18.40;99.90;;;;;;5012730;28;20482;-75
2022/06/25 00:51:47;;;;;;;21.90;6.15;;;18.30;99.90;;;;;;5012800;28;20057;-75
2022/06/25 00:54:17;;;;;;;17.27;6.37;;;18.20;99.90;;;;;;5013842;28;20085;-76
2022/06/25 00:56:50;;;;;;;14.88;6.60;;;18.20;99.90;;;;;;4996446;28;20544;-75
2022/06/25 00:59:24;;;;;;;19.70;6.40;;;18.10;99.90;;;;;;5013922;28;20506;-76
2022/06/25 01:01:54;;;;;;;28.60;6.65;;;18.10;99.90;;;;;;5013911;28;20054;-76
2022/06/25 01:04:21;;;;;;;25.13;6.78;;;18.00;99.90;;;;;;5012473;28;20053;-75
2022/06/25 01:06:49;;;;;;;33.35;6.47;;;18.00;99.90;;;;;;5013699;28;20050;-75
2022/06/25 01:09:17;;;;;;;26.63;8.00;;;18.00;99.90;;;;;;5012328;28;20101;-75
2022/06/25 01:11:44;;;;;;;21.08;6.90;;;18.10;99.90;;;;;;5013270;28;20085;-75
2022/06/25 01:14:12;;;;;;;17.85;5.75;;;18.10;99.90;;;;;;5012189;28;20498;-75
2022/06/25 01:16:40;;;;;;;35.22;8.30;;;18.20;99.90;;;;;;5013580;28;20048;-75
2022/06/25 01:19:10;;;;;;;21.00;7.13;;;18.20;99.90;;;;;;4995921;28;20148;-75
2022/06/25 01:21:37;;;;;;;22.63;6.75;;;18.20;99.90;;;;;;5013544;28;20112;-75
2022/06/25 01:24:07;;;;;;;19.30;7.20;;;18.20;99.90;;;;;;5013628;28;20050;-75
2022/06/25 01:26:35;;;;;;;23.58;6.72;;;18.20;99.90;;;;;;5012119;28;20046;-75
2022/06/25 01:29:03;;;;;;;26.15;7.88;;;18.30;99.90;;;;;;5013063;28;20046;-75
2022/06/25 01:31:31;;;;;;;13.55;6.07;;;18.20;99.90;;;;;;5013380;28;20573;-76
2022/06/25 01:33:58;;;;;;;20.10;6.72;;;18.30;99.90;;;;;;4995576;28;20045;-76
2022/06/25 01:36:26;;;;;;;27.00;8.25;;;18.30;99.90;;;;;;5013250;28;20058;-76
2022/06/25 01:38:56;;;;;;;22.58;6.95;;;18.30;99.90;;;;;;4995574;28;20056;-76
2022/06/25 01:41:25;;;;;;;17.55;7.43;;;18.30;99.90;;;;;;4995329;28;20045;-76
2022/06/25 01:43:52;;;;;;;35.80;10.77;;;18.30;99.90;;;;;;5011663;28;20092;-76
2022/06/25 01:46:20;;;;;;;32.90;9.13;;;18.40;99.90;;;;;;5013215;28;20645;-76
2022/06/25 01:48:50;;;;;;;69.35;13.10;;;18.40;99.90;;;;;;5012878;28;20058;-77
2022/06/25 01:51:17;;;;;;;43.13;10.07;;;18.40;99.90;;;;;;4995328;28;20076;-77
2022/06/25 01:53:47;;;;;;;67.47;12.70;;;18.40;99.90;;;;;;4995029;28;20046;-77
2022/06/25 01:56:15;;;;;;;92.03;13.95;;;18.50;99.90;;;;;;5011537;28;20552;-77
2022/06/25 01:58:51;;;;;;;66.75;12.05;;;18.50;99.90;;;;;;5011689;28;20052;-77
2022/06/25 02:01:19;;;;;;;58.17;13.05;;;18.50;99.90;;;;;;5012817;28;20049;-77
2022/06/25 02:03:48;;;;;;;64.13;13.25;;;18.60;99.90;;;;;;4995151;28;20072;-77
2022/06/25 02:06:16;;;;;;;55.90;13.02;;;18.60;99.90;;;;;;5011341;28;20046;-77
2022/06/25 02:08:43;;;;;;;51.92;11.90;;;18.60;99.90;;;;;;5011452;28;20049;-76
2022/06/25 02:11:12;;;;;;;45.75;12.55;;;18.60;99.90;;;;;;5011416;28;20058;-76
2022/06/25 02:13:39;;;;;;;40.95;11.55;;;18.60;99.90;;;;;;5011306;28;20076;-77
2022/06/25 02:16:08;;;;;;;45.28;11.60;;;18.60;99.90;;;;;;5012466;28;20054;-77
2022/06/25 02:18:38;;;;;;;37.58;11.63;;;18.60;99.90;;;;;;4994644;28;20050;-77
2022/06/25 02:21:06;;;;;;;36.83;10.90;;;18.50;99.90;;;;;;5011029;28;20494;-77
2022/06/25 02:23:33;;;;;;;46.67;12.93;;;18.50;99.90;;;;;;5011431;28;20050;-77
2022/06/25 02:26:00;;;;;;;47.38;12.23;;;18.60;99.90;;;;;;5011040;28;20469;-77
2022/06/25 02:28:28;;;;;;;45.42;12.70;;;18.60;99.90;;;;;;5012298;28;20046;-77
2022/06/25 02:30:57;;;;;;;30.48;10.43;;;18.70;99.90;;;;;;5012238;28;20042;-77
2022/06/25 02:33:26;;;;;;;40.03;11.57;;;18.70;99.90;;;;;;5010928;28;20058;-77
2022/06/25 02:35:54;;;;;;;49.15;12.82;;;18.70;99.90;;;;;;5010467;28;20061;-77
2022/06/25 02:38:22;;;;;;;46.47;11.75;;;18.70;99.90;;;;;;4994646;28;20050;-77
2022/06/25 02:40:53;;;;;;;45.80;11.88;;;18.70;99.90;;;;;;5010586;28;20145;-77
2022/06/25 02:43:21;;;;;;;34.42;11.82;;;18.70;99.90;;;;;;5010716;28;20077;-77
2022/06/25 02:45:56;;;;;;;51.80;12.60;;;18.70;99.90;;;;;;5010826;28;20490;-77
2022/06/25 02:48:25;;;;;;;51.63;12.55;;;18.70;99.90;;;;;;5010648;28;20046;-77
2022/06/25 02:50:53;;;;;;;45.60;12.80;;;18.70;99.90;;;;;;5010563;28;20111;-77
2022/06/25 02:53:21;;;;;;;51.83;12.05;;;18.70;99.90;;;;;;4994174;28;20054;-77
2022/06/25 03:01:21;;;;;;;51.47;13.35;;;18.70;99.90;;;;;;4994109;28;20400;-77
2022/06/25 03:03:52;;;;;;;39.22;11.73;;;18.70;99.90;;;;;;5009779;28;20149;-77
2022/06/25 03:06:19;;;;;;;54.42;13.27;;;18.70;99.90;;;;;;5010086;28;20517;-77
2022/06/25 03:08:48;;;;;;;60.78;13.40;;;18.80;99.90;;;;;;4994008;28;20049;-77
2022/06/25 03:11:16;;;;;;;52.08;12.48;;;18.80;99.90;;;;;;5010384;28;20057;-77
2022/06/25 03:13:44;;;;;;;52.92;12.05;;;18.80;99.90;;;;;;4993866;28;20056;-77
2022/06/25 03:16:14;;;;;;;45.35;12.85;;;18.90;99.90;;;;;;5011913;28;20069;-76
2022/06/25 03:18:42;;;;;;;60.20;12.57;;;18.90;99.90;;;;;;5010238;28;20046;-76
2022/06/25 03:21:22;;;;;;;64.80;14.35;;;19.00;99.90;;;;;;5011210;28;20050;-76
2022/06/25 03:23:59;;;;;;;57.38;12.73;;;19.00;99.90;;;;;;4978004;28;20506;-76
2022/06/25 03:26:27;;;;;;;54.38;13.63;;;19.10;99.90;;;;;;5010145;28;20558;-76
2022/06/25 03:28:58;;;;;;;56.90;12.77;;;19.10;99.90;;;;;;5010044;28;20100;-77
2022/06/25 03:31:27;;;;;;;40.25;11.40;;;19.20;99.90;;;;;;4993446;28;20050;-77
2022/06/25 03:33:57;;;;;;;43.47;12.43;;;19.30;99.90;;;;;;4993540;28;20069;-76
2022/06/25 03:36:45;;;;;;;41.78;12.55;;;19.30;99.90;;;;;;4993446;28;20144;-77
2022/06/25 03:39:12;;;;;;;34.40;12.27;;;19.40;99.90;;;;;;5009786;28;20145;-77
2022/06/25 03:41:41;;;;;;;40.95;13.93;;;19.50;99.90;;;;;;4993478;28;20510;-77
2022/06/25 03:44:27;;;;;;;33.00;13.00;;;19.50;99.90;;;;;;5009768;28;20050;-77
2022/06/25 03:47:02;;;;;;;31.83;11.60;;;19.70;99.90;;;;;;5010052;28;20096;-76
2022/06/25 03:49:32;;;;;;;22.33;12.15;;;19.80;99.90;;;;;;5009706;28;20109;-77
2022/06/25 03:52:03;;;;;;;30.20;12.05;;;19.80;99.90;;;;;;4993412;28;20100;-77
2022/06/25 03:54:30;;;;;;;37.00;11.75;;;19.90;99.90;;;;;;5009786;28;20462;-76
2022/06/25 03:56:58;;;;;;;31.10;12.02;;;20.00;99.90;;;;;;5009886;28;20046;-76
2022/06/25 03:59:35;;;;;;;44.92;11.70;;;20.00;99.90;;;;;;5009860;28;20058;-75
2022/06/25 04:02:15;;;;;;;55.03;12.82;;;20.10;99.90;;;;;;5009713;28;20046;-76
2022/06/25 04:05:03;;;;;;;43.17;10.73;;;20.20;99.90;;;;;;5011049;28;20061;-76
2022/06/25 04:07:33;;;;;;;44.47;11.90;;;20.30;99.90;;;;;;5009733;28;20050;-76
2022/06/25 04:10:00;;;;;;;47.90;12.45;;;20.50;99.90;;;;;;4993089;28;20050;-76
2022/06/25 04:12:28;;;;;;;55.15;11.20;;;20.60;99.90;;;;;;5009719;28;20137;-77
2022/06/25 04:14:55;;;;;;;45.47;11.95;;;20.70;99.90;;;;;;5009640;28;20077;-77
2022/06/25 04:17:23;;;;;;;56.88;12.52;;;20.70;99.90;;;;;;5014531;28;20060;-76
2022/06/25 04:19:50;;;;;;;38.03;10.27;;;20.80;99.90;;;;;;5013339;28;20395;-77
2022/06/25 04:22:19;;;;;;;24.42;9.25;;;20.90;99.90;;;;;;5013296;28;20049;-77
2022/06/25 04:24:49;;;;;;;22.13;8.55;;;21.00;99.90;;;;;;5013519;28;20406;-77
2022/06/25 04:29:57;;;;;;;22.75;8.15;;;21.20;99.90;;;;;;5014294;28;20159;-77
2022/06/25 04:32:25;;;;;;;27.17;11.75;;;21.30;99.90;;;;;;5013141;28;20056;-77
2022/06/25 04:35:15;;;;;;;17.13;7.13;;;21.30;99.90;;;;;;5013603;28;20064;-77
2022/06/25 04:37:45;;;;;;;16.80;7.50;;;21.40;99.90;;;;;;5013180;28;20517;-77
2022/06/25 04:40:17;;;;;;;14.68;6.72;;;21.50;99.90;;;;;;5013179;28;20125;-77
2022/06/25 04:42:47;;;;;;;14.55;6.53;;;21.60;99.90;;;;;;5013282;28;20054;-77
2022/06/25 04:45:18;;;;;;;12.80;6.82;;;21.60;99.90;;;;;;5014060;28;20104;-77
2022/06/25 04:48:06;;;;;;;15.45;6.03;;;21.70;99.90;;;;;;5016816;28;20054;-76
2022/06/25 04:51:12;;;;;;;15.68;6.50;;;21.80;99.90;;;;;;5011516;28;20556;-77
2022/06/25 04:56:24;;;;;;;8.68;4.63;;;22.00;99.90;;;;;;5003720;28;20529;-77
2022/06/25 04:58:53;;;;;;;5.07;3.67;;;22.10;99.90;;;;;;5012553;28;20050;-77
2022/06/25 05:01:46;;;;;;;6.22;3.17;;;22.20;99.90;;;;;;5014591;28;20053;-77
2022/06/25 05:04:13;;;;;;;6.43;3.17;;;22.30;99.90;;;;;;5012605;28;20585;-77
2022/06/25 05:06:41;;;;;;;7.15;3.47;;;22.40;99.90;;;;;;5012577;28;20077;-77
2022/06/25 05:09:08;;;;;;;6.50;3.30;;;22.50;99.90;;;;;;5012533;28;20459;-77
2022/06/25 05:11:38;;;;;;;6.45;3.17;;;22.60;99.90;;;;;;5012470;28;20514;-77
2022/06/25 05:14:05;;;;;;;5.50;2.58;;;22.60;99.90;;;;;;5030284;28;20147;-76
2022/06/25 05:16:33;;;;;;;10.13;3.22;;;22.70;99.90;;;;;;5012306;28;20050;-76
2022/06/25 05:19:01;;;;;;;9.52;2.70;;;22.70;99.90;;;;;;5012381;28;20054;-76
2022/06/25 05:21:31;;;;;;;4.53;2.55;;;22.80;99.90;;;;;;4996183;28;20058;-76
2022/06/25 05:24:04;;;;;;;6.80;2.42;;;22.90;99.90;;;;;;5016071;28;20399;-78
2022/06/25 05:26:31;;;;;;;2.65;2.45;;;23.00;99.90;;;;;;5020038;28;20115;-76
2022/06/25 05:29:00;;;;;;;3.17;2.08;;;23.10;99.90;;;;;;5007249;28;20502;-77
2022/06/25 05:31:27;;;;;;;4.20;2.45;;;23.20;99.90;;;;;;5019782;28;20041;-78
2022/06/25 05:33:55;;;;;;;4.47;2.38;;;23.40;99.90;;;;;;5019944;28;20096;-77
2022/06/25 05:36:22;;;;;;;4.07;2.05;;;23.50;99.90;;;;;;5007485;28;20056;-76
2022/06/25 05:38:51;;;;;;;4.90;2.20;;;23.70;99.90;;;;;;5020447;28;20042;-76
2022/06/25 05:41:18;;;;;;;3.67;2.40;;;23.80;99.90;;;;;;5002870;28;20104;-77
2022/06/25 05:43:45;;;;;;;3.28;2.25;;;24.00;99.90;;;;;;5020936;28;20045;-77
2022/06/25 05:46:15;;;;;;;4.85;2.38;;;24.40;99.00;;;;;;5021912;28;20049;-77
2022/06/25 05:48:42;;;;;;;6.03;2.22;;;24.80;98.50;;;;;;5020423;28;20033;-78
2022/06/25 05:51:09;;;;;;;3.88;2.20;;;25.30;96.30;;;;;;5004083;28;20465;-77
2022/06/25 05:53:36;;;;;;;4.35;1.90;;;25.80;94.70;;;;;;5022306;28;20061;-78
2022/06/25 05:56:04;;;;;;;4.68;2.60;;;26.20;92.50;;;;;;5025233;28;20077;-77
2022/06/25 05:58:31;;;;;;;2.55;2.35;;;26.70;91.40;;;;;;5033224;28;20454;-80
2022/06/25 06:00:59;;;;;;;3.85;2.17;;;27.20;89.50;;;;;;5031405;28;20056;-79
2022/06/25 06:03:27;;;;;;;6.95;2.67;;;27.60;85.00;;;;;;5032197;28;20048;-79
2022/06/25 06:05:54;;;;;;;4.70;2.50;;;28.00;82.10;;;;;;5032761;28;20494;-79
2022/06/25 06:08:22;;;;;;;2.13;1.83;;;28.50;80.60;;;;;;5031383;28;20045;-80
2022/06/25 06:10:49;;;;;;;5.57;2.33;;;28.80;76.50;;;;;;5032561;28;20057;-81
2022/06/25 06:13:17;;;;;;;5.65;2.20;;;29.30;73.20;;;;;;5031181;28;20468;-79
2022/06/25 06:15:44;;;;;;;3.10;2.03;;;29.70;72.60;;;;;;5013749;28;20103;-80
2022/06/25 06:18:11;;;;;;;3.15;2.72;;;30.10;69.50;;;;;;5032624;28;20588;-79
2022/06/25 06:20:40;;;;;;;3.83;2.38;;;30.30;69.30;;;;;;5031007;28;20964;-79
2022/06/25 06:23:07;;;;;;;6.32;2.40;;;30.60;68.50;;;;;;5032536;28;20166;-79
2022/06/25 06:25:35;;;;;;;2.15;1.98;;;30.80;64.50;;;;;;5030787;28;20457;-79
2022/06/25 06:28:02;;;;;;;5.03;2.53;;;31.00;66.20;;;;;;5032235;28;20118;-79
2022/06/25 06:30:30;;;;;;;3.95;3.17;;;31.10;64.30;;;;;;5014310;28;20143;-80
2022/06/25 06:32:57;;;;;;;6.43;2.58;;;31.50;63.40;;;;;;5031065;28;20045;-80
2022/06/25 06:35:24;;;;;;;5.03;2.58;;;31.80;61.70;;;;;;5031275;28;20041;-80
2022/06/25 06:37:53;;;;;;;3.90;2.70;;;32.10;60.80;;;;;;5031384;28;20054;-78
2022/06/25 06:40:20;;;;;;;2.85;1.88;;;32.30;60.10;;;;;;5030773;28;20042;-78
2022/06/25 06:42:47;;;;;;;2.90;2.30;;;32.50;59.20;;;;;;5031039;28;20057;-79
2022/06/25 06:45:15;;;;;;;4.38;2.67;;;32.70;58.50;;;;;;5032130;28;20112;-80
2022/06/25 06:47:42;;;;;;;5.60;2.20;;;32.90;58.00;;;;;;5014097;28;20065;-79
2022/06/25 06:50:10;;;;;;;6.85;1.92;;;33.10;57.40;;;;;;5031545;28;20076;-77
2022/06/25 06:52:38;;;;;;;5.05;1.90;;;33.40;57.00;;;;;;5028176;28;20049;-82
2022/06/25 06:55:08;;;;;;;4.07;2.20;;;33.70;56.30;;;;;;5031766;28;20067;-82
2022/06/25 06:57:38;;;;;;;5.88;2.60;;;33.80;55.50;;;;;;5031233;28;20144;-82
2022/06/25 07:00:06;;;;;;;5.10;2.08;;;33.80;54.60;;;;;;5029852;28;20060;-81
2022/06/25 07:02:34;;;;;;;4.70;2.30;;;33.90;54.20;;;;;;5030574;28;20046;-81
2022/06/25 07:05:02;;;;;;;2.65;1.83;;;33.80;54.30;;;;;;5030782;28;20072;-80
2022/06/25 07:07:31;;;;;;;2.80;2.15;;;33.90;53.40;;;;;;5025637;28;20514;-82
2022/06/25 07:09:58;;;;;;;3.95;2.50;;;33.90;53.80;;;;;;5024797;28;20071;-83
2022/06/25 07:12:27;;;;;;;4.00;2.30;;;34.00;53.40;;;;;;5005831;28;20045;-83
2022/06/25 07:14:54;;;;;;;4.80;2.35;;;34.00;52.70;;;;;;5027061;28;20049;-81
2022/06/25 07:17:21;;;;;;;4.25;2.20;;;34.10;52.90;;;;;;5028491;28;20135;-79
2022/06/25 07:19:52;;;;;;;4.50;2.30;;;34.40;52.90;;;;;;5031154;28;20049;-80
2022/06/25 07:22:19;;;;;;;5.65;2.33;;;34.70;52.70;;;;;;5027564;28;20100;-85
2022/06/25 07:24:46;;;;;;;2.42;2.00;;;35.00;52.50;;;;;;5019518;28;20077;-81
2022/06/25 07:27:14;;;;;;;2.83;2.42;;;35.30;51.40;;;;;;5029864;28;20052;-81
2022/06/25 07:29:43;;;;;;;3.92;2.30;;;35.30;50.80;;;;;;5023763;28;20056;-81
2022/06/25 07:32:10;;;;;;;2.90;1.75;;;35.40;50.80;;;;;;5001455;28;20042;-81
2022/06/25 07:34:41;;;;;;;2.28;2.00;;;35.50;50.60;;;;;;5031059;28;20088;-82
2022/06/25 07:37:09;;;;;;;2.65;1.88;;;35.70;51.10;;;;;;5029524;28;20402;-78
2022/06/25 07:39:36;;;;;;;3.70;1.80;;;35.70;50.60;;;;;;5030489;28;20046;-78
2022/06/25 07:42:05;;;;;;;2.08;1.83;;;35.70;50.50;;;;;;5030847;28;20132;-78
2022/06/25 07:44:33;;;;;;;2.90;1.58;;;35.70;50.70;;;;;;5021821;28;20050;-78
2022/06/25 07:47:01;;;;;;;5.45;2.33;;;35.90;50.80;;;;;;5017840;28;20060;-80
2022/06/25 07:49:29;;;;;;;1.80;1.70;;;35.70;50.90;;;;;;4993351;28;20050;-79
2022/06/25 07:52:00;;;;;;;5.57;3.58;;;35.90;50.40;;;;;;5014554;28;20060;-77
2022/06/25 07:54:29;;;;;;;2.10;1.90;;;36.10;50.30;;;;;;5013576;28;20057;-79
2022/06/25 07:56:57;;;;;;;4.40;2.92;;;36.40;50.40;;;;;;5016345;28;20576;-78
2022/06/25 07:59:24;;;;;;;5.00;2.10;;;36.80;49.30;;;;;;5022361;28;20053;-78
2022/06/25 08:01:52;;;;;;;3.08;2.25;;;37.00;49.20;;;;;;5023516;28;20493;-76
2022/06/25 08:04:21;;;;;;;5.50;1.85;;;36.80;48.60;;;;;;5026211;28;20064;-77
2022/06/25 08:06:48;;;;;;;3.50;2.50;;;36.90;48.60;;;;;;5022692;28;20049;-77
2022/06/25 08:09:15;;;;;;;5.70;2.55;;;37.00;49.10;;;;;;5020581;28;20128;-78
2022/06/25 08:11:43;;;;;;;4.93;1.98;;;37.10;49.40;;;;;;5020393;28;20046;-77
2022/06/25 08:14:10;;;;;;;2.63;1.95;;;37.30;49.70;;;;;;5023584;28;20050;-77
2022/06/25 08:16:38;;;;;;;4.57;2.25;;;37.50;49.10;;;;;;5022472;28;20783;-78
2022/06/25 08:19:05;;;;;;;4.60;2.30;;;37.70;47.80;;;;;;5021639;28;20042;-78
2022/06/25 08:21:34;;;;;;;3.38;2.13;;;37.70;48.40;;;;;;5023356;28;20056;-79
2022/06/25 08:24:01;;;;;;;5.40;2.60;;;37.70;47.50;;;;;;5017648;28;20505;-79
2022/06/25 08:26:29;;;;;;;6.30;2.20;;;37.70;47.70;;;;;;5021228;28;20068;-78
2022/06/25 08:28:56;;;;;;;5.30;2.35;;;37.70;47.40;;;;;;5022973;28;20038;-79
2022/06/25 08:31:24;;;;;;;4.90;2.30;;;38.00;47.70;;;;;;5016967;28;20053;-78
2022/06/25 08:33:51;;;;;;;5.35;3.33;;;38.30;47.50;;;;;;5024157;28;20037;-77
2022/06/25 08:36:18;;;;;;;3.45;2.13;;;38.40;47.20;;;;;;4996758;28;20065;-78
2022/06/25 08:38:47;;;;;;;2.30;2.10;;;38.40;47.20;;;;;;5021742;28;20064;-79
2022/06/25 08:41:15;;;;;;;2.40;2.03;;;38.60;48.00;;;;;;5023209;28;20038;-78
2022/06/25 08:43:42;;;;;;;3.83;2.45;;;38.70;46.90;;;;;;5025307;28;20042;-76
2022/06/25 08:46:10;;;;;;;7.85;2.15;;;38.80;47.70;;;;;;5022076;28;20596;-81
2022/06/25 08:48:40;;;;;;;4.97;2.20;;;38.90;46.80;;;;;;5016639;28;20057;-80
2022/06/25 08:51:09;;;;;;;4.47;2.00;;;38.90;46.40;;;;;;5015478;28;20062;-79
2022/06/25 08:53:36;;;;;;;6.45;2.20;;;39.10;46.30;;;;;;5033097;28;20045;-80
2022/06/25 08:56:05;;;;;;;7.50;2.38;;;39.40;46.50;;;;;;5033608;28;20504;-79
2022/06/25 08:58:34;;;;;;;2.53;2.33;;;39.40;46.10;;;;;;5017082;28;20148;-80
2022/06/25 09:01:01;;;;;;;3.15;2.20;;;39.50;47.00;;;;;;5013811;28;20391;-80
2022/06/25 09:03:28;;;;;;;3.63;2.33;;;39.60;46.00;;;;;;5012854;28;20506;-80
2022/06/25 09:05:56;;;;;;;3.90;2.63;;;39.90;46.70;;;;;;5012429;28;20072;-81
2022/06/25 09:08:23;;;;;;;6.05;2.28;;;40.10;46.30;;;;;;5014060;28;20049;-80
2022/06/25 09:10:54;;;;;;;2.80;2.60;;;40.30;45.30;;;;;;5012433;28;20057;-80
2022/06/25 09:13:25;;;;;;;4.50;2.03;;;40.40;44.80;;;;;;5014412;28;20168;-81
2022/06/25 09:15:53;;;;;;;3.38;2.13;;;40.50;43.80;;;;;;5029962;28;20396;-80
2022/06/25 09:18:21;;;;;;;5.75;2.33;;;40.30;44.90;;;;;;5033644;28;20053;-80
2022/06/25 09:21:01;;;;;;;2.70;1.70;;;40.10;45.00;;;;;;5015664;28;20072;-79
2022/06/25 09:23:31;;;;;;;2.45;1.95;;;40.20;45.50;;;;;;5032242;28;20589;-79
2022/06/25 09:26:04;;;;;;;3.05;2.00;;;40.20;44.20;;;;;;5015480;28;20052;-80
2022/06/25 09:28:34;;;;;;;3.97;2.13;;;40.50;44.30;;;;;;5032684;28;20045;-80
2022/06/25 09:31:02;;;;;;;3.88;2.00;;;40.70;43.80;;;;;;5032378;28;20049;-79
2022/06/25 09:33:30;;;;;;;2.35;2.03;;;40.70;43.50;;;;;;5032460;28;20541;-80
2022/06/25 09:35:58;;;;;;;3.33;1.85;;;41.00;44.40;;;;;;5031315;28;20224;-79
2022/06/25 09:38:26;;;;;;;2.95;2.03;;;41.10;43.50;;;;;;5032047;28;20073;-79
2022/06/25 09:40:57;;;;;;;2.97;2.00;;;41.00;43.90;;;;;;5031483;28;20518;-79
2022/06/25 09:43:26;;;;;;;4.88;2.22;;;40.90;43.10;;;;;;5015730;28;20136;-81
2022/06/25 09:45:56;;;;;;;2.58;2.38;;;40.90;43.20;;;;;;5033088;28;20048;-80
2022/06/25 09:48:25;;;;;;;6.93;2.42;;;41.00;43.10;;;;;;5028403;28;20054;-79
2022/06/25 09:51:06;;;;;;;3.78;2.25;;;40.70;43.30;;;;;;5013080;28;20042;-79
2022/06/25 09:53:35;;;;;;;2.03;1.83;;;40.80;43.30;;;;;;4995813;28;20050;-79
2022/06/25 09:56:03;;;;;;;6.57;2.50;;;40.80;43.10;;;;;;5011754;28;20477;-79
2022/06/25 09:58:32;;;;;;;5.03;3.53;;;41.00;42.70;;;;;;5011620;28;20058;-77
2022/06/25 10:01:02;;;;;;;3.03;2.10;;;41.00;44.50;;;;;;5011021;28;20132;-78
2022/06/25 10:03:31;;;;;;;3.28;2.28;;;41.10;43.30;;;;;;5013044;28;20161;-79
2022/06/25 10:05:58;;;;;;;5.35;2.20;;;41.20;42.80;;;;;;5028243;28;20084;-80
2022/06/25 10:08:30;;;;;;;3.78;2.20;;;41.30;42.60;;;;;;5032895;28;20053;-79
2022/06/25 10:10:59;;;;;;;5.13;2.05;;;41.50;41.80;;;;;;5031403;28;20051;-78
2022/06/25 10:13:26;;;;;;;2.80;1.98;;;41.80;42.70;;;;;;5032473;28;20053;-77
2022/06/25 10:15:55;;;;;;;4.70;2.50;;;41.90;42.40;;;;;;5031664;28;20076;-77
2022/06/25 10:18:25;;;;;;;3.53;2.00;;;41.90;40.40;;;;;;5032686;28;20061;-77
2022/06/25 10:20:53;;;;;;;4.20;2.22;;;41.70;41.50;;;;;;5030925;28;20049;-77
2022/06/25 10:23:22;;;;;;;3.38;1.80;;;41.80;40.90;;;;;;5031172;28;20057;-78
2022/06/25 10:25:50;;;;;;;3.53;2.28;;;42.10;42.80;;;;;;5032485;28;20049;-77
2022/06/25 10:28:26;;;;;;;2.85;2.00;;;42.10;41.20;;;;;;5032585;28;20195;-76
2022/06/25 10:30:56;;;;;;;3.15;2.75;;;42.30;41.70;;;;;;5030734;28;20045;-76
2022/06/25 10:33:26;;;;;;;2.73;2.07;;;42.30;40.50;;;;;;5032008;28;20049;-79
2022/06/25 10:35:56;;;;;;;2.10;1.98;;;42.20;41.80;;;;;;5031727;28;20056;-79
2022/06/25 10:38:25;;;;;;;4.93;2.08;;;42.20;40.90;;;;;;5022196;28;20060;-79
2022/06/25 10:40:55;;;;;;;3.33;2.40;;;42.10;41.00;;;;;;5017053;28;20479;-79
2022/06/25 10:43:38;;;;;;;4.10;2.47;;;42.20;41.40;;;;;;5024201;28;20540;-77
2022/06/25 10:46:23;;;;;;;3.30;2.35;;;42.30;41.30;;;;;;5026200;28;20064;-79
2022/06/25 10:48:55;;;;;;;4.00;3.70;;;42.30;41.10;;;;;;5026010;28;20188;-80
2022/06/25 10:51:31;;;;;;;2.80;2.25;;;42.30;41.20;;;;;;5011958;28;20068;-80
2022/06/25 10:53:59;;;;;;;3.92;2.08;;;42.50;42.40;;;;;;5011582;28;20536;-78
2022/06/25 10:56:27;;;;;;;2.78;2.53;;;42.50;41.70;;;;;;5011889;28;20045;-77
2022/06/25 10:58:55;;;;;;;4.13;2.10;;;42.60;41.70;;;;;;4994129;28;20049;-78
2022/06/25 11:01:28;;;;;;;6.65;2.25;;;42.80;41.50;;;;;;5016185;28;20141;-80
2022/06/25 11:04:03;;;;;;;3.08;2.78;;;42.80;40.40;;;;;;5011826;28;20046;-80
2022/06/25 11:06:34;;;;;;;4.13;2.20;;;43.00;41.40;;;;;;5010305;28;20044;-81
2022/06/25 11:09:16;;;;;;;5.85;2.03;;;43.10;40.30;;;;;;5010613;28;20418;-80
2022/06/25 11:11:46;;;;;;;4.15;2.00;;;43.30;40.30;;;;;;5011647;28;20411;-84
2022/06/25 11:14:24;;;;;;;2.05;1.95;;;43.50;40.20;;;;;;4997620;28;20053;-82
2022/06/25 11:16:53;;;;;;;4.18;2.25;;;43.50;39.90;;;;;;5031317;28;20140;-82
2022/06/25 11:19:23;;;;;;;4.75;2.17;;;43.70;40.20;;;;;;5031178;28;20077;-82
2022/06/25 11:21:52;;;;;;;2.83;2.10;;;43.80;40.00;;;;;;5031427;28;20048;-80
2022/06/25 11:24:21;;;;;;;3.85;2.05;;;43.80;39.80;;;;;;5025400;28;20421;-82
2022/06/25 11:29:38;;;;;;;3.55;2.80;;;44.00;40.60;;;;;;5030129;28;20124;-82
2022/06/25 11:32:06;;;;;;;2.53;2.10;;;44.20;39.10;;;;;;5031288;28;20057;-82
2022/06/25 11:34:36;;;;;;;3.97;2.30;;;44.40;38.90;;;;;;5031246;28;20045;-81
2022/06/25 11:37:09;;;;;;;4.25;2.50;;;44.50;38.10;;;;;;5029514;28;20107;-82
2022/06/25 11:39:37;;;;;;;3.55;2.35;;;44.70;38.50;;;;;;5030630;28;20053;-80
2022/06/25 11:42:09;;;;;;;3.42;1.90;;;44.70;38.70;;;;;;5031380;28;20053;-80
2022/06/25 11:44:46;;;;;;;2.15;2.00;;;44.50;37.80;;;;;;5013353;28;20046;-82
2022/06/25 11:47:19;;;;;;;;;;;44.40;38.40;;;;;;5031663;28;20452;-81
2022/06/25 11:49:48;;;;;;;3.38;1.98;;;44.50;38.40;;;;;;5029895;28;20023;-81
2022/06/25 11:52:17;;;;;;;3.58;1.90;;;44.40;37.50;;;;;;5031093;28;20571;-81
2022/06/25 11:54:46;;;;;;;4.72;2.10;;;44.50;38.10;;;;;;5030659;28;20041;-81
2022/06/25 11:57:18;;;;;;;3.00;2.40;;;44.50;37.60;;;;;;5030985;28;20256;-83
2022/06/25 11:59:46;;;;;;;4.80;1.90;;;44.50;37.40;;;;;;5029167;28;20057;-81
2022/06/25 12:02:14;;;;;;;4.72;1.58;;;44.70;37.90;;;;;;5029448;28;20485;-82
2022/06/25 12:04:51;;;;;;;2.22;2.03;;;44.70;36.80;;;;;;5030203;28;20049;-79
2022/06/25 12:07:20;;;;;;;2.33;2.13;;;44.70;37.40;;;;;;5030807;28;20061;-80
2022/06/25 12:09:49;;;;;;;3.22;2.15;;;44.90;38.40;;;;;;5030511;28;20207;-78
2022/06/25 12:12:17;;;;;;;2.60;1.70;;;45.00;36.70;;;;;;5016667;28;20044;-80
2022/06/25 12:14:46;;;;;;;1.98;1.83;;;45.00;37.70;;;;;;5009875;28;20042;-81
2022/06/25 12:17:13;;;;;;;2.40;2.20;;;45.30;36.30;;;;;;5011269;28;20084;-81
2022/06/25 12:19:46;;;;;;;2.97;1.73;;;45.40;37.20;;;;;;5018895;28;20058;-78
2022/06/25 12:22:22;;;;;;;7.35;2.30;;;45.40;37.80;;;;;;5020099;28;20053;-77
2022/06/25 12:24:50;;;;;;;4.78;2.03;;;45.60;35.90;;;;;;5011563;28;20064;-77
2022/06/25 12:27:18;;;;;;;2.85;2.10;;;45.60;35.80;;;;;;5009506;28;20418;-78
2022/06/25 12:29:47;;;;;;;2.20;1.70;;;45.60;36.10;;;;;;5022695;28;20476;-79
2022/06/25 12:32:15;;;;;;;3.50;1.90;;;45.70;36.90;;;;;;5027277;28;20045;-77
2022/06/25 12:34:47;;;;;;;2.28;2.17;;;45.70;36.00;;;;;;5030011;28;20528;-80
2022/06/25 12:37:29;;;;;;;2.88;1.92;;;45.60;36.50;;;;;;5032853;28;20064;-83
2022/06/25 12:39:59;;;;;;;2.30;2.10;;;45.30;35.10;;;;;;5034249;28;20517;-81
2022/06/25 12:42:28;;;;;;;7.27;2.20;;;44.60;36.40;;;;;;5033208;28;20484;-81
2022/06/25 12:44:57;;;;;;;2.80;2.10;;;44.70;37.10;;;;;;5033905;28;20123;-81
2022/06/25 12:47:24;;;;;;;3.42;2.17;;;44.70;35.40;;;;;;5016117;28;20041;-82
2022/06/25 12:49:53;;;;;;;3.97;1.80;;;44.70;35.90;;;;;;5023059;28;20060;-81
2022/06/25 12:52:23;;;;;;;2.20;1.80;;;44.90;36.80;;;;;;5021533;28;20088;-82
2022/06/25 12:54:54;;;;;;;2.38;1.70;;;45.10;36.50;;;;;;5020490;28;20042;-83
2022/06/25 12:57:25;;;;;;;5.03;2.20;;;45.00;36.00;;;;;;5023142;28;20502;-81
2022/06/25 12:59:53;;;;;;;2.33;2.13;;;45.10;35.50;;;;;;5026798;28;20053;-82
2022/06/25 13:02:22;;;;;;;3.10;2.08;;;45.00;35.60;;;;;;5032697;28;20068;-82
2022/06/25 13:04:50;;;;;;;3.33;2.05;;;45.20;36.00;;;;;;5033579;28;20073;-83
2022/06/25 13:07:18;;;;;;;2.42;1.98;;;45.30;35.60;;;;;;5032263;28;20533;-82
2022/06/25 13:09:48;;;;;;;2.20;2.10;;;45.40;35.10;;;;;;5033914;28;20058;-82
2022/06/25 13:12:18;;;;;;;3.33;1.90;;;45.50;35.20;;;;;;5033758;28;20053;-82